sensor_id;sensor_type;location;lat;lon;timestamp;P1;durP1;ratioP1;P2;durP2;ratioP2
62268;SDS011;56517;51.634;5.566;2022-12-07T00:01:44;22.77;;;13.57;;
62268;SDS011;56517;51.634;5.566;2022-12-07T00:06:46;23.58;;;13.05;;
62268;SDS011;56517;51.634;5.566;2022-12-07T00:11:50;22.08;;;13.00;;
62268;SDS011;56517;51.634;5.566;2022-12-07T00:16:51;22.15;;;14.13;;
62268;SDS011;56517;51.634;5.566;2022-12-07T00:21:51;23.95;;;13.48;;
62268;SDS011;56517;51.634;5.566;2022-12-07T00:26:52;20.80;;;13.35;;
62268;SDS011;56517;51.634;5.566;2022-12-07T00:31:53;21.23;;;12.70;;
62268;SDS011;56517;51.634;5.566;2022-12-07T00:36:53;24.23;;;13.02;;
62268;SDS011;56517;51.634;5.566;2022-12-07T00:41:54;22.65;;;13.82;;
62268;SDS011;56517;51.634;5.566;2022-12-07T00:46:54;22.17;;;13.40;;
62268;SDS011;56517;51.634;5.566;2022-12-07T00:51:55;26.00;;;13.77;;
62268;SDS011;56517;51.634;5.566;2022-12-07T00:56:55;24.27;;;14.57;;
62268;SDS011;56517;51.634;5.566;2022-12-07T01:01:56;22.83;;;14.18;;
62268;SDS011;56517;51.634;5.566;2022-12-07T01:06:56;19.75;;;12.73;;
62268;SDS011;56517;51.634;5.566;2022-12-07T01:11:57;21.55;;;13.77;;
62268;SDS011;56517;51.634;5.566;2022-12-07T01:16:57;20.45;;;12.10;;
62268;SDS011;56517;51.634;5.566;2022-12-07T01:21:58;20.13;;;12.88;;
62268;SDS011;56517;51.634;5.566;2022-12-07T01:26:58;19.23;;;13.52;;
62268;SDS011;56517;51.634;5.566;2022-12-07T01:31:59;23.40;;;12.90;;
62268;SDS011;56517;51.634;5.566;2022-12-07T01:37:00;24.30;;;13.40;;
62268;SDS011;56517;51.634;5.566;2022-12-07T01:42:00;22.42;;;13.13;;
62268;SDS011;56517;51.634;5.566;2022-12-07T01:47:02;23.10;;;13.00;;
62268;SDS011;56517;51.634;5.566;2022-12-07T01:52:06;19.55;;;11.13;;
62268;SDS011;56517;51.634;5.566;2022-12-07T01:57:09;18.38;;;11.48;;
62268;SDS011;56517;51.634;5.566;2022-12-07T02:02:12;19.73;;;12.68;;
62268;SDS011;56517;51.634;5.566;2022-12-07T02:07:17;17.83;;;12.50;;
62268;SDS011;56517;51.634;5.566;2022-12-07T02:12:19;17.30;;;12.13;;
62268;SDS011;56517;51.634;5.566;2022-12-07T02:53:30;16.58;;;11.00;;
62268;SDS011;56517;51.634;5.566;2022-12-07T03:03:53;22.60;;;11.82;;
62268;SDS011;56517;51.634;5.566;2022-12-07T03:09:08;16.20;;;11.10;;
62268;SDS011;56517;51.634;5.566;2022-12-07T03:14:23;18.98;;;12.70;;
62268;SDS011;56517;51.634;5.566;2022-12-07T03:19:26;20.08;;;11.88;;
62268;SDS011;56517;51.634;5.566;2022-12-07T03:24:31;15.20;;;11.18;;
62268;SDS011;56517;51.634;5.566;2022-12-07T03:29:35;18.40;;;11.73;;
62268;SDS011;56517;51.634;5.566;2022-12-07T03:39:54;22.13;;;11.90;;
62268;SDS011;56517;51.634;5.566;2022-12-07T03:45:01;17.17;;;10.27;;
62268;SDS011;56517;51.634;5.566;2022-12-07T03:50:04;18.23;;;11.60;;
62268;SDS011;56517;51.634;5.566;2022-12-07T03:55:20;17.13;;;11.98;;
62268;SDS011;56517;51.634;5.566;2022-12-07T04:00:23;22.95;;;11.68;;
62268;SDS011;56517;51.634;5.566;2022-12-07T04:05:24;16.50;;;10.75;;
62268;SDS011;56517;51.634;5.566;2022-12-07T04:10:24;10.38;;;9.15;;
62268;SDS011;56517;51.634;5.566;2022-12-07T04:15:25;14.70;;;9.50;;
62268;SDS011;56517;51.634;5.566;2022-12-07T04:20:25;11.27;;;9.27;;
62268;SDS011;56517;51.634;5.566;2022-12-07T04:25:26;14.48;;;9.18;;
62268;SDS011;56517;51.634;5.566;2022-12-07T04:30:26;15.15;;;9.73;;
62268;SDS011;56517;51.634;5.566;2022-12-07T04:35:27;17.10;;;10.13;;
62268;SDS011;56517;51.634;5.566;2022-12-07T04:40:27;10.75;;;9.15;;
62268;SDS011;56517;51.634;5.566;2022-12-07T04:45:28;13.82;;;9.25;;
62268;SDS011;56517;51.634;5.566;2022-12-07T04:50:29;13.20;;;8.68;;
62268;SDS011;56517;51.634;5.566;2022-12-07T04:55:29;14.90;;;8.80;;
62268;SDS011;56517;51.634;5.566;2022-12-07T05:00:30;14.35;;;10.35;;
62268;SDS011;56517;51.634;5.566;2022-12-07T05:05:30;19.00;;;9.82;;
62268;SDS011;56517;51.634;5.566;2022-12-07T05:10:31;12.80;;;9.20;;
62268;SDS011;56517;51.634;5.566;2022-12-07T05:15:31;12.88;;;9.50;;
62268;SDS011;56517;51.634;5.566;2022-12-07T05:20:32;12.85;;;8.63;;
62268;SDS011;56517;51.634;5.566;2022-12-07T05:25:32;12.70;;;8.57;;
62268;SDS011;56517;51.634;5.566;2022-12-07T05:30:33;13.98;;;8.35;;
62268;SDS011;56517;51.634;5.566;2022-12-07T05:35:33;13.13;;;8.40;;
62268;SDS011;56517;51.634;5.566;2022-12-07T05:40:34;13.63;;;8.82;;
62268;SDS011;56517;51.634;5.566;2022-12-07T05:45:34;11.13;;;9.27;;
62268;SDS011;56517;51.634;5.566;2022-12-07T05:50:35;13.23;;;8.88;;
62268;SDS011;56517;51.634;5.566;2022-12-07T05:55:36;11.88;;;8.85;;
62268;SDS011;56517;51.634;5.566;2022-12-07T06:00:36;11.00;;;9.13;;
62268;SDS011;56517;51.634;5.566;2022-12-07T06:05:37;10.68;;;8.73;;
62268;SDS011;56517;51.634;5.566;2022-12-07T06:10:37;11.43;;;8.82;;
62268;SDS011;56517;51.634;5.566;2022-12-07T06:15:38;12.98;;;8.43;;
62268;SDS011;56517;51.634;5.566;2022-12-07T06:20:38;11.90;;;7.78;;
62268;SDS011;56517;51.634;5.566;2022-12-07T06:25:39;11.18;;;8.10;;
62268;SDS011;56517;51.634;5.566;2022-12-07T06:30:39;11.77;;;8.90;;
62268;SDS011;56517;51.634;5.566;2022-12-07T06:35:40;17.35;;;10.20;;
62268;SDS011;56517;51.634;5.566;2022-12-07T06:40:41;15.10;;;9.75;;
62268;SDS011;56517;51.634;5.566;2022-12-07T06:45:42;15.68;;;10.77;;
62268;SDS011;56517;51.634;5.566;2022-12-07T06:50:45;22.90;;;10.95;;
62268;SDS011;56517;51.634;5.566;2022-12-07T06:55:46;15.27;;;9.75;;
62268;SDS011;56517;51.634;5.566;2022-12-07T07:00:47;15.77;;;9.68;;
62268;SDS011;56517;51.634;5.566;2022-12-07T07:05:48;16.98;;;10.23;;
62268;SDS011;56517;51.634;5.566;2022-12-07T07:10:48;20.92;;;14.05;;
62268;SDS011;56517;51.634;5.566;2022-12-07T07:15:49;19.58;;;11.90;;
62268;SDS011;56517;51.634;5.566;2022-12-07T07:20:50;17.55;;;10.75;;
62268;SDS011;56517;51.634;5.566;2022-12-07T07:25:50;13.77;;;10.10;;
62268;SDS011;56517;51.634;5.566;2022-12-07T07:30:51;18.90;;;13.88;;
62268;SDS011;56517;51.634;5.566;2022-12-07T07:35:51;23.25;;;11.60;;
62268;SDS011;56517;51.634;5.566;2022-12-07T07:40:52;20.65;;;12.20;;
62268;SDS011;56517;51.634;5.566;2022-12-07T07:45:52;26.40;;;14.60;;
62268;SDS011;56517;51.634;5.566;2022-12-07T07:50:53;19.33;;;11.10;;
62268;SDS011;56517;51.634;5.566;2022-12-07T07:55:54;21.90;;;11.55;;
62268;SDS011;56517;51.634;5.566;2022-12-07T08:00:54;20.52;;;11.55;;
62268;SDS011;56517;51.634;5.566;2022-12-07T08:05:55;17.65;;;12.27;;
62268;SDS011;56517;51.634;5.566;2022-12-07T08:10:55;18.92;;;11.07;;
62268;SDS011;56517;51.634;5.566;2022-12-07T08:15:56;15.00;;;11.23;;
62268;SDS011;56517;51.634;5.566;2022-12-07T08:20:59;17.65;;;10.00;;
62268;SDS011;56517;51.634;5.566;2022-12-07T08:26:01;17.83;;;11.27;;
62268;SDS011;56517;51.634;5.566;2022-12-07T08:31:02;20.40;;;9.95;;
62268;SDS011;56517;51.634;5.566;2022-12-07T08:36:03;14.90;;;9.00;;
62268;SDS011;56517;51.634;5.566;2022-12-07T08:41:04;12.70;;;8.32;;
62268;SDS011;56517;51.634;5.566;2022-12-07T08:51:06;16.10;;;9.30;;
62268;SDS011;56517;51.634;5.566;2022-12-07T08:56:06;15.43;;;10.07;;
62268;SDS011;56517;51.634;5.566;2022-12-07T09:01:07;15.98;;;10.32;;
62268;SDS011;56517;51.634;5.566;2022-12-07T09:06:07;15.95;;;9.57;;
62268;SDS011;56517;51.634;5.566;2022-12-07T09:11:08;20.35;;;10.30;;
62268;SDS011;56517;51.634;5.566;2022-12-07T09:16:09;14.20;;;10.57;;
62268;SDS011;56517;51.634;5.566;2022-12-07T09:21:09;14.35;;;9.07;;
62268;SDS011;56517;51.634;5.566;2022-12-07T09:26:10;19.50;;;8.48;;
62268;SDS011;56517;51.634;5.566;2022-12-07T09:31:10;20.48;;;9.25;;
62268;SDS011;56517;51.634;5.566;2022-12-07T09:36:11;18.92;;;9.55;;
62268;SDS011;56517;51.634;5.566;2022-12-07T09:41:11;13.52;;;8.55;;
62268;SDS011;56517;51.634;5.566;2022-12-07T09:46:13;10.05;;;6.93;;
62268;SDS011;56517;51.634;5.566;2022-12-07T09:51:16;10.82;;;7.78;;
62268;SDS011;56517;51.634;5.566;2022-12-07T09:56:17;13.38;;;7.85;;
62268;SDS011;56517;51.634;5.566;2022-12-07T10:01:18;13.18;;;8.43;;
62268;SDS011;56517;51.634;5.566;2022-12-07T10:06:19;16.40;;;6.57;;
62268;SDS011;56517;51.634;5.566;2022-12-07T10:11:20;10.00;;;5.90;;
62268;SDS011;56517;51.634;5.566;2022-12-07T10:21:25;11.77;;;8.18;;
62268;SDS011;56517;51.634;5.566;2022-12-07T10:26:33;15.40;;;6.50;;
62268;SDS011;56517;51.634;5.566;2022-12-07T10:31:34;7.18;;;5.97;;
62268;SDS011;56517;51.634;5.566;2022-12-07T10:36:38;8.93;;;5.57;;
62268;SDS011;56517;51.634;5.566;2022-12-07T10:41:52;10.90;;;5.88;;
62268;SDS011;56517;51.634;5.566;2022-12-07T10:46:55;10.07;;;6.07;;
62268;SDS011;56517;51.634;5.566;2022-12-07T10:57:19;7.72;;;6.60;;
62268;SDS011;56517;51.634;5.566;2022-12-07T11:02:26;8.05;;;6.50;;
62268;SDS011;56517;51.634;5.566;2022-12-07T11:22:59;13.45;;;7.10;;
62268;SDS011;56517;51.634;5.566;2022-12-07T11:33:27;14.35;;;8.32;;
62268;SDS011;56517;51.634;5.566;2022-12-07T11:38:33;8.45;;;6.88;;
62268;SDS011;56517;51.634;5.566;2022-12-07T11:43:37;9.88;;;6.95;;
62268;SDS011;56517;51.634;5.566;2022-12-07T11:48:49;9.88;;;6.80;;
62268;SDS011;56517;51.634;5.566;2022-12-07T11:53:52;10.68;;;7.07;;
62268;SDS011;56517;51.634;5.566;2022-12-07T11:58:57;14.60;;;6.78;;
62268;SDS011;56517;51.634;5.566;2022-12-07T12:09:14;8.97;;;6.37;;
62268;SDS011;56517;51.634;5.566;2022-12-07T12:19:26;14.35;;;6.65;;
62268;SDS011;56517;51.634;5.566;2022-12-07T12:24:28;8.63;;;5.85;;
62268;SDS011;56517;51.634;5.566;2022-12-07T12:29:33;7.13;;;5.38;;
62268;SDS011;56517;51.634;5.566;2022-12-07T12:39:37;12.40;;;5.85;;
62268;SDS011;56517;51.634;5.566;2022-12-07T12:44:38;11.13;;;5.93;;
62268;SDS011;56517;51.634;5.566;2022-12-07T12:49:43;9.93;;;6.03;;
62268;SDS011;56517;51.634;5.566;2022-12-07T13:00:21;9.32;;;5.07;;
62268;SDS011;56517;51.634;5.566;2022-12-07T13:05:25;15.35;;;5.68;;
62268;SDS011;56517;51.634;5.566;2022-12-07T13:15:47;12.13;;;5.85;;
62268;SDS011;56517;51.634;5.566;2022-12-07T13:20:49;7.25;;;5.82;;
62268;SDS011;56517;51.634;5.566;2022-12-07T13:31:04;11.75;;;7.78;;
62268;SDS011;56517;51.634;5.566;2022-12-07T13:36:19;10.95;;;6.10;;
62268;SDS011;56517;51.634;5.566;2022-12-07T13:41:21;9.13;;;6.28;;
62268;SDS011;56517;51.634;5.566;2022-12-07T13:46:35;8.63;;;5.55;;
62268;SDS011;56517;51.634;5.566;2022-12-07T13:51:37;6.85;;;5.32;;
62268;SDS011;56517;51.634;5.566;2022-12-07T13:56:38;47.22;;;22.63;;
62268;SDS011;56517;51.634;5.566;2022-12-07T14:01:39;9.57;;;6.72;;
62268;SDS011;56517;51.634;5.566;2022-12-07T14:06:46;7.20;;;6.00;;
62268;SDS011;56517;51.634;5.566;2022-12-07T14:11:47;11.57;;;6.53;;
62268;SDS011;56517;51.634;5.566;2022-12-07T14:17:22;6.57;;;5.93;;
62268;SDS011;56517;51.634;5.566;2022-12-07T14:22:25;7.05;;;6.35;;
62268;SDS011;56517;51.634;5.566;2022-12-07T14:27:30;11.00;;;5.60;;
62268;SDS011;56517;51.634;5.566;2022-12-07T14:32:31;6.85;;;5.57;;
62268;SDS011;56517;51.634;5.566;2022-12-07T14:37:32;7.35;;;5.82;;
62268;SDS011;56517;51.634;5.566;2022-12-07T14:42:33;7.35;;;5.43;;
62268;SDS011;56517;51.634;5.566;2022-12-07T14:47:34;7.60;;;4.88;;
62268;SDS011;56517;51.634;5.566;2022-12-07T14:52:35;7.18;;;4.90;;
62268;SDS011;56517;51.634;5.566;2022-12-07T14:57:35;8.18;;;4.97;;
62268;SDS011;56517;51.634;5.566;2022-12-07T15:02:36;8.10;;;5.72;;
62268;SDS011;56517;51.634;5.566;2022-12-07T15:07:36;7.07;;;5.07;;
62268;SDS011;56517;51.634;5.566;2022-12-07T15:12:37;7.00;;;5.82;;
62268;SDS011;56517;51.634;5.566;2022-12-07T15:17:37;9.65;;;6.80;;
62268;SDS011;56517;51.634;5.566;2022-12-07T15:22:38;8.80;;;7.82;;
62268;SDS011;56517;51.634;5.566;2022-12-07T15:27:38;6.50;;;5.90;;
62268;SDS011;56517;51.634;5.566;2022-12-07T15:32:39;10.52;;;6.93;;
62268;SDS011;56517;51.634;5.566;2022-12-07T15:37:39;8.38;;;5.97;;
62268;SDS011;56517;51.634;5.566;2022-12-07T15:42:40;9.38;;;6.43;;
62268;SDS011;56517;51.634;5.566;2022-12-07T15:47:41;21.73;;;15.18;;
62268;SDS011;56517;51.634;5.566;2022-12-07T15:52:42;10.07;;;7.28;;
62268;SDS011;56517;51.634;5.566;2022-12-07T15:57:43;15.32;;;8.45;;
62268;SDS011;56517;51.634;5.566;2022-12-07T16:02:43;13.25;;;8.70;;
62268;SDS011;56517;51.634;5.566;2022-12-07T16:07:44;20.63;;;14.18;;
62268;SDS011;56517;51.634;5.566;2022-12-07T16:12:44;8.23;;;7.43;;
62268;SDS011;56517;51.634;5.566;2022-12-07T16:17:45;8.50;;;7.13;;
62268;SDS011;56517;51.634;5.566;2022-12-07T16:22:45;12.25;;;8.25;;
62268;SDS011;56517;51.634;5.566;2022-12-07T16:27:46;8.25;;;6.85;;
62268;SDS011;56517;51.634;5.566;2022-12-07T16:32:46;9.90;;;6.18;;
62268;SDS011;56517;51.634;5.566;2022-12-07T16:37:47;9.20;;;6.97;;
62268;SDS011;56517;51.634;5.566;2022-12-07T16:42:48;9.45;;;8.10;;
62268;SDS011;56517;51.634;5.566;2022-12-07T16:47:48;13.23;;;8.38;;
62268;SDS011;56517;51.634;5.566;2022-12-07T16:52:49;14.63;;;9.93;;
62268;SDS011;56517;51.634;5.566;2022-12-07T16:57:49;21.33;;;12.73;;
62268;SDS011;56517;51.634;5.566;2022-12-07T17:02:50;14.75;;;11.00;;
62268;SDS011;56517;51.634;5.566;2022-12-07T17:07:50;17.88;;;11.45;;
62268;SDS011;56517;51.634;5.566;2022-12-07T17:12:51;16.25;;;11.23;;
62268;SDS011;56517;51.634;5.566;2022-12-07T17:17:58;13.93;;;11.50;;
62268;SDS011;56517;51.634;5.566;2022-12-07T17:23:00;15.75;;;11.00;;
62268;SDS011;56517;51.634;5.566;2022-12-07T17:28:00;17.25;;;13.95;;
62268;SDS011;56517;51.634;5.566;2022-12-07T17:33:01;15.13;;;11.93;;
62268;SDS011;56517;51.634;5.566;2022-12-07T17:38:01;17.70;;;12.68;;
62268;SDS011;56517;51.634;5.566;2022-12-07T17:43:02;14.15;;;10.02;;
62268;SDS011;56517;51.634;5.566;2022-12-07T17:48:03;14.77;;;9.60;;
62268;SDS011;56517;51.634;5.566;2022-12-07T17:53:03;11.57;;;8.52;;
62268;SDS011;56517;51.634;5.566;2022-12-07T17:58:04;8.90;;;8.00;;
62268;SDS011;56517;51.634;5.566;2022-12-07T18:03:05;10.27;;;8.50;;
62268;SDS011;56517;51.634;5.566;2022-12-07T18:08:05;15.68;;;10.10;;
62268;SDS011;56517;51.634;5.566;2022-12-07T18:13:06;12.15;;;8.60;;
62268;SDS011;56517;51.634;5.566;2022-12-07T18:18:06;14.25;;;8.68;;
62268;SDS011;56517;51.634;5.566;2022-12-07T18:23:07;14.30;;;9.05;;
62268;SDS011;56517;51.634;5.566;2022-12-07T18:28:07;13.85;;;9.80;;
62268;SDS011;56517;51.634;5.566;2022-12-07T18:33:08;10.13;;;8.73;;
62268;SDS011;56517;51.634;5.566;2022-12-07T18:38:08;13.00;;;7.85;;
62268;SDS011;56517;51.634;5.566;2022-12-07T18:43:09;16.33;;;9.23;;
62268;SDS011;56517;51.634;5.566;2022-12-07T18:48:10;11.30;;;8.20;;
62268;SDS011;56517;51.634;5.566;2022-12-07T18:53:10;14.15;;;8.82;;
62268;SDS011;56517;51.634;5.566;2022-12-07T18:58:11;15.75;;;9.02;;
62268;SDS011;56517;51.634;5.566;2022-12-07T19:03:12;15.57;;;9.77;;
62268;SDS011;56517;51.634;5.566;2022-12-07T19:08:12;18.33;;;14.30;;
62268;SDS011;56517;51.634;5.566;2022-12-07T19:13:13;9.00;;;8.15;;
62268;SDS011;56517;51.634;5.566;2022-12-07T19:18:13;15.30;;;8.68;;
62268;SDS011;56517;51.634;5.566;2022-12-07T19:23:14;12.93;;;9.00;;
62268;SDS011;56517;51.634;5.566;2022-12-07T19:28:14;12.05;;;9.38;;
62268;SDS011;56517;51.634;5.566;2022-12-07T19:33:15;13.25;;;8.95;;
62268;SDS011;56517;51.634;5.566;2022-12-07T19:38:15;13.60;;;9.10;;
62268;SDS011;56517;51.634;5.566;2022-12-07T19:43:16;18.63;;;9.82;;
62268;SDS011;56517;51.634;5.566;2022-12-07T19:48:16;10.85;;;7.95;;
62268;SDS011;56517;51.634;5.566;2022-12-07T19:53:17;15.07;;;9.00;;
62268;SDS011;56517;51.634;5.566;2022-12-07T19:58:18;10.02;;;8.10;;
62268;SDS011;56517;51.634;5.566;2022-12-07T20:03:18;12.85;;;9.30;;
62268;SDS011;56517;51.634;5.566;2022-12-07T20:08:19;17.38;;;13.70;;
62268;SDS011;56517;51.634;5.566;2022-12-07T20:13:19;12.10;;;8.85;;
62268;SDS011;56517;51.634;5.566;2022-12-07T20:18:20;12.43;;;10.63;;
62268;SDS011;56517;51.634;5.566;2022-12-07T20:23:24;11.75;;;9.10;;
62268;SDS011;56517;51.634;5.566;2022-12-07T20:28:24;10.27;;;9.18;;
62268;SDS011;56517;51.634;5.566;2022-12-07T20:33:25;10.85;;;9.43;;
62268;SDS011;56517;51.634;5.566;2022-12-07T20:38:26;14.52;;;9.77;;
62268;SDS011;56517;51.634;5.566;2022-12-07T20:43:27;13.40;;;9.65;;
62268;SDS011;56517;51.634;5.566;2022-12-07T20:48:28;11.60;;;9.32;;
62268;SDS011;56517;51.634;5.566;2022-12-07T20:53:28;14.35;;;9.23;;
62268;SDS011;56517;51.634;5.566;2022-12-07T20:58:29;13.23;;;9.68;;
62268;SDS011;56517;51.634;5.566;2022-12-07T21:03:29;17.98;;;9.77;;
62268;SDS011;56517;51.634;5.566;2022-12-07T21:08:30;15.68;;;11.02;;
62268;SDS011;56517;51.634;5.566;2022-12-07T21:13:30;17.77;;;10.40;;
62268;SDS011;56517;51.634;5.566;2022-12-07T21:18:31;16.38;;;10.00;;
62268;SDS011;56517;51.634;5.566;2022-12-07T21:23:32;11.93;;;9.95;;
62268;SDS011;56517;51.634;5.566;2022-12-07T21:28:32;12.60;;;9.95;;
62268;SDS011;56517;51.634;5.566;2022-12-07T21:33:33;11.00;;;8.80;;
62268;SDS011;56517;51.634;5.566;2022-12-07T21:38:34;15.88;;;8.73;;
62268;SDS011;56517;51.634;5.566;2022-12-07T21:43:35;13.40;;;10.27;;
62268;SDS011;56517;51.634;5.566;2022-12-07T21:48:35;11.93;;;9.05;;
62268;SDS011;56517;51.634;5.566;2022-12-07T21:53:36;11.30;;;9.65;;
62268;SDS011;56517;51.634;5.566;2022-12-07T21:58:37;12.93;;;9.60;;
62268;SDS011;56517;51.634;5.566;2022-12-07T22:03:37;11.05;;;8.82;;
62268;SDS011;56517;51.634;5.566;2022-12-07T22:08:38;13.88;;;9.32;;
62268;SDS011;56517;51.634;5.566;2022-12-07T22:13:39;12.90;;;9.25;;
62268;SDS011;56517;51.634;5.566;2022-12-07T22:18:40;56.55;;;22.10;;
62268;SDS011;56517;51.634;5.566;2022-12-07T22:23:40;22.20;;;11.75;;
62268;SDS011;56517;51.634;5.566;2022-12-07T22:28:41;14.00;;;8.20;;
62268;SDS011;56517;51.634;5.566;2022-12-07T22:33:42;9.40;;;8.25;;
62268;SDS011;56517;51.634;5.566;2022-12-07T22:38:43;11.02;;;8.55;;
62268;SDS011;56517;51.634;5.566;2022-12-07T22:43:44;7.78;;;6.95;;
62268;SDS011;56517;51.634;5.566;2022-12-07T22:48:45;11.45;;;8.80;;
62268;SDS011;56517;51.634;5.566;2022-12-07T22:53:45;9.48;;;8.23;;
62268;SDS011;56517;51.634;5.566;2022-12-07T22:58:46;10.93;;;9.05;;
62268;SDS011;56517;51.634;5.566;2022-12-07T23:03:47;12.43;;;9.63;;
62268;SDS011;56517;51.634;5.566;2022-12-07T23:08:47;17.00;;;10.68;;
62268;SDS011;56517;51.634;5.566;2022-12-07T23:13:48;14.38;;;10.98;;
62268;SDS011;56517;51.634;5.566;2022-12-07T23:18:48;21.63;;;11.23;;
62268;SDS011;56517;51.634;5.566;2022-12-07T23:23:49;14.68;;;12.32;;
62268;SDS011;56517;51.634;5.566;2022-12-07T23:28:50;19.85;;;13.27;;
62268;SDS011;56517;51.634;5.566;2022-12-07T23:33:51;21.20;;;13.18;;
62268;SDS011;56517;51.634;5.566;2022-12-07T23:38:52;20.40;;;13.05;;
62268;SDS011;56517;51.634;5.566;2022-12-07T23:43:53;22.60;;;14.48;;
62268;SDS011;56517;51.634;5.566;2022-12-07T23:48:54;31.27;;;17.77;;
62268;SDS011;56517;51.634;5.566;2022-12-07T23:53:55;34.17;;;19.95;;
62268;SDS011;56517;51.634;5.566;2022-12-07T23:58:57;28.88;;;16.60;;
